Time;durP1;ratioP1;P1;durP2;ratioP2;P2;SDS_P1;SDS_P2;PMS_P1;PMS_P2;Temp;Humidity;BMP_temperature;BMP_pressure;BME280_temperature;BME280_humidity;BME280_pressure;Samples;Min_cycle;Max_cycle;Signal;HPM_P1;HPM_P2
2020/12/21 00:01:49;;;;;;;2.13;1.00;;;14.90;70.00;;;;;;6248753;22;19999;-73
2020/12/21 00:04:20;;;;;;;2.13;0.90;;;13.90;73.00;;;;;;6277622;22;20414;-71
2020/12/21 00:06:57;;;;;;;2.45;0.90;;;14.20;73.60;;;;;;6276250;22;20003;-74
2020/12/21 00:09:24;;;;;;;2.53;0.93;;;13.90;73.50;;;;;;6274316;22;20003;-73
2020/12/21 00:11:51;;;;;;;2.20;0.90;;;13.50;74.90;;;;;;6274744;22;20317;-77
2020/12/21 00:14:19;;;;;;;1.83;1.13;;;13.10;76.10;;;;;;6277144;22;20007;-78
2020/12/21 00:16:48;;;;;;;1.55;0.93;;;12.80;77.10;;;;;;6277516;22;19991;-80
2020/12/21 00:19:21;;;;;;;1.35;0.93;;;12.50;78.40;;;;;;6274267;22;20004;-79
2020/12/21 00:21:50;;;;;;;3.65;1.48;;;12.10;80.00;;;;;;6280277;22;20019;-74
2020/12/21 00:24:17;;;;;;;1.88;1.17;;;11.90;81.80;;;;;;6251424;22;19995;-76
2020/12/21 00:26:54;;;;;;;3.35;1.95;;;11.70;82.50;;;;;;6279053;22;20359;-77
2020/12/21 00:29:21;;;;;;;1.30;0.95;;;11.60;83.40;;;;;;6275371;22;20450;-77
2020/12/21 00:31:48;;;;;;;1.10;0.90;;;11.60;84.10;;;;;;6277206;22;20436;-78
2020/12/21 00:34:16;;;;;;;2.65;1.00;;;11.50;84.60;;;;;;6276668;22;20014;-77
2020/12/21 00:36:47;;;;;;;2.83;0.93;;;11.50;85.00;;;;;;6276358;22;20361;-76
2020/12/21 00:39:14;;;;;;;1.75;1.00;;;11.40;85.00;;;;;;6276050;22;20007;-76
2020/12/21 00:41:43;;;;;;;3.53;1.35;;;11.40;85.80;;;;;;6275549;22;20007;-78
2020/12/21 00:44:10;;;;;;;1.25;1.10;;;11.30;85.90;;;;;;6277295;22;20086;-76
2020/12/21 00:46:38;;;;;;;1.50;0.98;;;11.30;86.10;;;;;;6276305;22;20022;-76
2020/12/21 00:49:06;;;;;;;2.45;1.10;;;11.30;86.10;;;;;;6276341;22;19996;-76
2020/12/21 00:51:34;;;;;;;1.40;0.80;;;11.40;85.70;;;;;;6247875;22;20015;-76
2020/12/21 00:54:01;;;;;;;1.42;1.00;;;11.30;85.90;;;;;;6277210;22;20019;-76
2020/12/21 00:56:28;;;;;;;1.23;0.60;;;11.30;86.10;;;;;;6278562;22;19998;-77
2020/12/21 00:58:55;;;;;;;3.78;0.90;;;11.30;85.50;;;;;;6274219;22;20000;-76
2020/12/21 01:01:28;;;;;;;4.35;0.82;;;11.30;85.30;;;;;;6280941;22;20006;-76
2020/12/21 01:03:57;;;;;;;3.45;0.90;;;11.20;85.70;;;;;;6278688;22;20421;-76
2020/12/21 01:06:24;;;;;;;2.20;0.90;;;11.20;85.80;;;;;;6276616;22;20004;-78
2020/12/21 01:08:51;;;;;;;1.10;0.70;;;11.10;86.00;;;;;;6276153;22;20000;-76
2020/12/21 01:11:18;;;;;;;1.48;0.88;;;11.20;85.60;;;;;;6277601;22;20352;-78
2020/12/21 01:13:48;;;;;;;1.65;0.80;;;11.20;85.60;;;;;;6276564;22;20014;-75
2020/12/21 01:16:18;;;;;;;2.40;0.85;;;11.20;85.70;;;;;;6276252;22;20019;-77
2020/12/21 01:18:45;;;;;;;3.53;1.10;;;11.10;85.30;;;;;;6275610;22;20417;-76
2020/12/21 01:21:26;;;;;;;1.33;0.80;;;11.10;85.90;;;;;;6249433;22;20018;-78
2020/12/21 01:23:54;;;;;;;0.80;0.68;;;11.10;85.20;;;;;;6279162;22;20317;-79
2020/12/21 01:26:21;;;;;;;1.88;0.93;;;11.00;85.40;;;;;;6275894;22;20007;-77
2020/12/21 01:28:49;;;;;;;3.05;0.88;;;11.00;85.70;;;;;;6276857;22;19996;-77
2020/12/21 01:31:17;;;;;;;1.73;0.88;;;11.10;85.30;;;;;;6276071;22;20000;-79
2020/12/21 01:33:45;;;;;;;2.03;1.02;;;11.00;85.70;;;;;;6274097;22;20012;-79
2020/12/21 01:36:12;;;;;;;1.58;0.82;;;11.00;85.20;;;;;;6273283;22;20325;-77
2020/12/21 01:38:39;;;;;;;1.15;0.88;;;11.10;85.00;;;;;;6273687;22;20015;-76
2020/12/21 01:41:06;;;;;;;1.08;0.82;;;11.00;85.50;;;;;;6275419;22;19992;-75
2020/12/21 01:43:33;;;;;;;1.80;0.90;;;11.00;85.60;;;;;;6277079;22;20290;-78
2020/12/21 01:46:14;;;;;;;1.15;0.70;;;10.90;85.70;;;;;;6277340;22;20075;-77
2020/12/21 01:48:43;;;;;;;1.23;0.98;;;10.90;85.70;;;;;;6284506;22;20433;-79
2020/12/21 01:51:25;;;;;;;3.92;0.95;;;10.90;85.70;;;;;;6275188;22;19996;-77
2020/12/21 01:53:54;;;;;;;1.00;0.60;;;10.90;85.40;;;;;;6276179;22;20432;-78
2020/12/21 01:56:22;;;;;;;1.50;0.65;;;10.90;85.30;;;;;;6276154;22;20317;-77
2020/12/21 01:58:49;;;;;;;0.68;0.50;;;11.00;85.00;;;;;;6274543;22;20023;-76
2020/12/21 02:01:18;;;;;;;1.50;0.70;;;11.00;84.40;;;;;;6275942;22;19996;-78
2020/12/21 02:03:46;;;;;;;1.73;0.70;;;11.10;84.00;;;;;;6278696;22;20413;-75
2020/12/21 02:06:13;;;;;;;1.33;0.60;;;11.10;84.10;;;;;;6278549;22;19999;-74
2020/12/21 02:08:40;;;;;;;0.85;0.50;;;11.10;84.00;;;;;;6279319;22;20421;-77
2020/12/21 02:11:07;;;;;;;0.68;0.60;;;11.10;83.80;;;;;;6276790;22;20206;-78
2020/12/21 02:13:34;;;;;;;1.00;0.57;;;11.20;83.10;;;;;;6277015;22;20030;-76
2020/12/21 02:16:02;;;;;;;0.98;0.40;;;11.30;82.80;;;;;;6277301;22;19999;-76
2020/12/21 02:18:29;;;;;;;1.27;0.60;;;11.30;82.50;;;;;;6278824;22;20011;-74
2020/12/21 02:20:56;;;;;;;1.40;0.50;;;11.20;82.90;;;;;;6278888;22;20023;-76
2020/12/21 02:23:23;;;;;;;2.10;0.45;;;11.30;82.50;;;;;;6248485;22;20010;-77
2020/12/21 02:25:52;;;;;;;0.55;0.40;;;11.40;82.10;;;;;;6276911;22;20087;-75
2020/12/21 02:28:19;;;;;;;2.60;0.52;;;11.40;81.90;;;;;;6276676;22;20003;-75
2020/12/21 02:30:47;;;;;;;2.17;0.52;;;11.40;82.00;;;;;;6279242;22;20352;-75
2020/12/21 02:33:14;;;;;;;3.25;0.60;;;11.30;82.40;;;;;;6277755;22;20014;-75
2020/12/21 02:35:41;;;;;;;0.85;0.50;;;11.30;82.40;;;;;;6275466;22;20003;-75
2020/12/21 02:38:08;;;;;;;1.35;0.68;;;11.30;82.40;;;;;;6276666;22;19996;-75
2020/12/21 02:40:36;;;;;;;2.20;0.60;;;11.30;82.40;;;;;;6278083;22;20321;-76
2020/12/21 02:43:03;;;;;;;1.08;0.63;;;11.30;82.40;;;;;;6276235;22;20007;-76
2020/12/21 02:45:30;;;;;;;0.82;0.47;;;11.30;82.10;;;;;;6277981;22;20333;-74
2020/12/21 02:47:57;;;;;;;1.08;0.45;;;11.40;82.10;;;;;;6278174;22;19992;-76
2020/12/21 02:50:24;;;;;;;2.42;0.60;;;11.30;82.20;;;;;;6277824;22;19996;-75
2020/12/21 02:52:51;;;;;;;0.88;0.52;;;11.30;82.30;;;;;;6276633;22;20006;-74
2020/12/21 02:55:18;;;;;;;0.90;0.52;;;11.30;82.40;;;;;;6274893;22;19999;-75
2020/12/21 02:57:46;;;;;;;0.45;0.43;;;11.20;82.50;;;;;;6276195;22;19992;-75
2020/12/21 03:00:13;;;;;;;0.68;0.55;;;11.20;82.60;;;;;;6248617;22;20329;-74
2020/12/21 03:02:40;;;;;;;3.03;0.60;;;11.10;82.90;;;;;;6278131;22;20400;-75
2020/12/21 03:05:07;;;;;;;0.65;0.40;;;11.20;82.80;;;;;;6277074;22;19996;-75
2020/12/21 03:07:35;;;;;;;2.25;0.60;;;11.20;82.70;;;;;;6276776;22;19996;-74
2020/12/21 03:10:03;;;;;;;0.82;0.43;;;11.20;83.00;;;;;;6277155;22;19999;-74
2020/12/21 03:12:30;;;;;;;1.25;0.50;;;11.20;82.50;;;;;;6280537;22;20006;-75
2020/12/21 03:14:57;;;;;;;0.60;0.50;;;11.20;82.60;;;;;;6276395;22;20003;-76
2020/12/21 03:17:24;;;;;;;0.50;0.50;;;11.20;82.60;;;;;;6275080;22;20007;-77
2020/12/21 03:19:54;;;;;;;1.33;0.77;;;11.20;82.80;;;;;;6277944;22;20003;-77
2020/12/21 03:22:22;;;;;;;0.90;0.63;;;11.10;82.80;;;;;;6279124;22;20019;-76
2020/12/21 03:24:49;;;;;;;1.05;0.30;;;11.10;82.80;;;;;;6275605;22;20011;-76
2020/12/21 03:27:16;;;;;;;1.27;0.80;;;11.20;82.50;;;;;;6277504;22;20014;-77
2020/12/21 03:29:44;;;;;;;0.47;0.40;;;11.10;82.80;;;;;;6274928;22;20003;-76
2020/12/21 03:32:11;;;;;;;2.40;0.57;;;11.00;83.10;;;;;;6277121;22;20005;-77
2020/12/21 03:34:38;;;;;;;0.55;0.40;;;11.10;82.80;;;;;;6276130;22;20008;-76
2020/12/21 03:37:05;;;;;;;0.68;0.40;;;11.10;82.80;;;;;;6278649;22;19996;-76
2020/12/21 03:39:32;;;;;;;0.35;0.30;;;11.10;83.30;;;;;;6278871;22;20006;-76
2020/12/21 03:41:59;;;;;;;1.17;0.60;;;11.10;82.90;;;;;;6276627;22;19996;-76
2020/12/21 03:44:26;;;;;;;1.27;0.70;;;11.10;82.80;;;;;;6275816;22;19996;-76
2020/12/21 03:46:53;;;;;;;0.77;0.52;;;11.00;83.00;;;;;;6275599;22;20015;-77
2020/12/21 03:49:20;;;;;;;1.00;0.50;;;11.00;83.20;;;;;;6275785;22;20002;-77
2020/12/21 03:51:47;;;;;;;0.65;0.50;;;11.00;83.20;;;;;;6277717;22;19999;-77
2020/12/21 03:54:13;;;;;;;0.80;0.70;;;11.00;83.10;;;;;;6274547;22;20425;-76
2020/12/21 03:56:45;;;;;;;0.65;0.40;;;11.00;83.40;;;;;;6276981;22;19996;-77
2020/12/21 03:59:12;;;;;;;1.35;0.70;;;11.00;83.40;;;;;;6274755;22;19999;-76
2020/12/21 04:01:39;;;;;;;3.40;0.60;;;10.90;83.60;;;;;;6275209;22;20000;-77
2020/12/21 04:04:07;;;;;;;1.67;0.50;;;11.00;83.60;;;;;;6277735;22;19998;-76
2020/12/21 04:06:35;;;;;;;1.33;0.80;;;11.00;83.80;;;;;;6278452;22;20003;-76
2020/12/21 04:09:03;;;;;;;0.88;0.50;;;10.90;84.30;;;;;;6277496;22;19996;-75
2020/12/21 04:11:30;;;;;;;0.80;0.60;;;11.00;84.70;;;;;;6278892;22;20006;-76
2020/12/21 04:13:57;;;;;;;2.05;0.55;;;10.90;84.50;;;;;;6274908;22;20011;-76
2020/12/21 04:16:24;;;;;;;1.33;0.50;;;10.90;84.90;;;;;;6247814;22;19996;-75
2020/12/21 04:18:51;;;;;;;1.73;1.10;;;10.90;84.60;;;;;;6274857;22;20003;-76
2020/12/21 04:21:18;;;;;;;1.75;0.60;;;10.90;84.70;;;;;;6273904;22;20389;-77
2020/12/21 04:23:45;;;;;;;1.73;0.77;;;10.90;84.80;;;;;;6276672;22;20591;-77
2020/12/21 04:26:12;;;;;;;0.85;0.65;;;10.80;85.10;;;;;;6276145;22;20409;-75
2020/12/21 04:28:39;;;;;;;1.17;0.70;;;10.90;85.20;;;;;;6278428;22;20015;-78
2020/12/21 04:31:07;;;;;;;0.93;0.60;;;10.80;85.20;;;;;;6280115;22;19998;-76
2020/12/21 04:33:34;;;;;;;0.80;0.45;;;10.80;85.60;;;;;;6248999;22;20010;-78
2020/12/21 04:36:01;;;;;;;0.80;0.47;;;10.80;85.70;;;;;;6277903;22;20000;-77
2020/12/21 04:38:28;;;;;;;1.27;0.60;;;10.80;85.60;;;;;;6276640;22;20002;-77
2020/12/21 04:40:56;;;;;;;1.65;0.60;;;10.70;86.10;;;;;;6274927;22;20010;-77
2020/12/21 04:43:24;;;;;;;0.70;0.70;;;10.60;86.10;;;;;;6274004;22;20004;-76
2020/12/21 04:45:55;;;;;;;1.02;0.70;;;10.60;86.30;;;;;;6275004;22;19999;-76
2020/12/21 04:48:28;;;;;;;1.20;0.60;;;10.60;86.20;;;;;;6274166;22;20021;-76
2020/12/21 04:50:55;;;;;;;1.92;0.68;;;10.60;86.30;;;;;;6279098;22;19992;-76
2020/12/21 04:53:23;;;;;;;2.17;0.50;;;10.60;86.50;;;;;;6276732;22;20432;-76
2020/12/21 04:55:51;;;;;;;1.05;0.63;;;10.60;86.50;;;;;;6273688;22;20010;-76
2020/12/21 04:58:18;;;;;;;0.75;0.50;;;10.70;86.30;;;;;;6273788;22;20428;-78
2020/12/21 05:00:45;;;;;;;3.47;0.57;;;10.70;86.40;;;;;;6276458;22;20389;-75
2020/12/21 05:03:12;;;;;;;1.52;0.60;;;10.70;86.20;;;;;;6273906;22;19999;-76
2020/12/21 05:05:42;;;;;;;0.68;0.47;;;10.70;86.20;;;;;;6273853;22;19995;-76
2020/12/21 05:08:10;;;;;;;1.42;0.70;;;10.70;86.10;;;;;;6273696;22;20010;-77
2020/12/21 05:11:01;;;;;;;0.75;0.50;;;10.70;86.40;;;;;;6278055;22;19992;-76
2020/12/21 05:13:30;;;;;;;0.70;0.45;;;10.70;86.50;;;;;;6276124;22;20063;-75
2020/12/21 05:15:58;;;;;;;2.60;0.70;;;10.70;86.70;;;;;;6273764;22;20003;-76
2020/12/21 05:18:27;;;;;;;1.50;0.55;;;10.70;86.40;;;;;;6273957;22;20007;-76
2020/12/21 05:21:00;;;;;;;1.23;0.65;;;10.70;86.40;;;;;;6273631;22;20343;-75
2020/12/21 05:23:27;;;;;;;1.67;0.63;;;10.70;86.50;;;;;;6274658;22;20000;-77
2020/12/21 05:26:03;;;;;;;7.53;1.98;;;10.60;86.60;;;;;;6278633;22;20447;-76
2020/12/21 05:28:32;;;;;;;0.90;0.57;;;10.60;86.70;;;;;;6274165;22;20429;-76
2020/12/21 05:31:01;;;;;;;2.00;0.50;;;10.80;86.40;;;;;;6274493;22;20007;-76
2020/12/21 05:33:29;;;;;;;0.82;0.40;;;10.80;86.40;;;;;;6278955;22;20023;-77
2020/12/21 05:36:03;;;;;;;0.70;0.30;;;10.80;86.20;;;;;;6278696;22;19995;-77
2020/12/21 05:38:31;;;;;;;0.70;0.40;;;10.80;86.10;;;;;;6276000;22;20010;-74
2020/12/21 05:41:19;;;;;;;0.50;0.40;;;10.70;86.30;;;;;;6275867;22;20452;-76
2020/12/21 05:43:47;;;;;;;2.28;0.50;;;10.70;86.70;;;;;;6249251;22;20007;-76
2020/12/21 05:46:32;;;;;;;0.52;0.50;;;10.80;86.30;;;;;;6277461;22;19995;-74
2020/12/21 05:49:00;;;;;;;1.05;0.43;;;10.80;86.40;;;;;;6278664;22;20014;-75
2020/12/21 05:51:33;;;;;;;0.63;0.32;;;10.70;86.50;;;;;;6281249;22;20002;-77
2020/12/21 05:54:02;;;;;;;1.65;0.40;;;10.80;86.30;;;;;;6276751;22;20015;-76
2020/12/21 05:56:31;;;;;;;0.50;0.40;;;10.80;86.10;;;;;;6276071;22;20003;-75
2020/12/21 05:58:59;;;;;;;0.50;0.40;;;10.80;85.70;;;;;;6277967;22;19996;-77
2020/12/21 06:01:27;;;;;;;0.45;0.35;;;10.80;85.80;;;;;;6275151;22;20007;-76
2020/12/21 06:03:55;;;;;;;1.13;0.50;;;10.80;86.10;;;;;;6276637;22;20006;-75
2020/12/21 06:06:27;;;;;;;0.82;0.73;;;10.80;86.10;;;;;;6278991;22;19995;-76
2020/12/21 06:08:59;;;;;;;0.70;0.50;;;10.70;86.00;;;;;;6278030;22;20003;-76
2020/12/21 06:11:28;;;;;;;1.60;0.40;;;10.70;86.00;;;;;;6277111;22;20003;-76
2020/12/21 06:14:00;;;;;;;1.00;0.50;;;10.80;86.10;;;;;;6277968;22;20006;-76
2020/12/21 06:16:29;;;;;;;0.63;0.32;;;10.70;86.00;;;;;;6280412;22;20018;-75
2020/12/21 06:19:01;;;;;;;0.45;0.40;;;10.80;85.80;;;;;;6281874;22;20002;-78
2020/12/21 06:21:33;;;;;;;0.65;0.50;;;10.90;85.20;;;;;;6278385;22;20016;-76
2020/12/21 06:24:00;;;;;;;0.73;0.68;;;10.90;85.20;;;;;;6275410;22;20006;-73
2020/12/21 06:26:35;;;;;;;0.70;0.40;;;10.80;85.40;;;;;;6277781;22;19996;-77
2020/12/21 06:29:05;;;;;;;4.55;0.50;;;10.80;85.40;;;;;;6277419;22;20006;-72
2020/12/21 06:31:45;;;;;;;1.25;0.40;;;10.80;85.90;;;;;;6278538;22;20329;-75
2020/12/21 06:34:28;;;;;;;3.30;0.63;;;10.70;85.70;;;;;;6277349;22;20356;-76
2020/12/21 06:37:09;;;;;;;0.65;0.40;;;10.60;85.80;;;;;;6278307;22;20366;-77
2020/12/21 06:39:38;;;;;;;0.50;0.43;;;10.70;85.50;;;;;;6275565;22;20342;-73
2020/12/21 06:42:15;;;;;;;0.70;0.65;;;10.60;85.10;;;;;;6273798;22;20000;-74
2020/12/21 06:44:43;;;;;;;1.00;0.50;;;10.60;85.50;;;;;;6274660;22;20047;-74
2020/12/21 06:47:12;;;;;;;0.90;0.50;;;10.50;85.40;;;;;;6277867;22;20003;-73
2020/12/21 06:49:39;;;;;;;0.93;0.50;;;10.50;85.30;;;;;;6278947;22;20439;-74
2020/12/21 06:52:07;;;;;;;0.88;0.50;;;10.40;85.20;;;;;;6279358;22;20028;-75
2020/12/21 06:54:34;;;;;;;0.57;0.40;;;10.50;85.00;;;;;;6274873;22;20012;-76
2020/12/21 06:57:01;;;;;;;2.22;0.50;;;10.40;85.50;;;;;;6275335;22;19995;-76
2020/12/21 06:59:28;;;;;;;1.05;0.30;;;10.40;85.80;;;;;;6276498;22;20033;-76
2020/12/21 07:01:56;;;;;;;0.68;0.50;;;10.40;86.40;;;;;;6277113;22;20448;-76
2020/12/21 07:04:25;;;;;;;2.40;0.52;;;10.30;86.60;;;;;;6275604;22;20010;-77
2020/12/21 07:06:52;;;;;;;0.98;0.45;;;10.40;86.90;;;;;;6278909;22;19992;-74
2020/12/21 07:09:24;;;;;;;1.48;0.70;;;10.40;86.70;;;;;;6279914;22;20006;-77
2020/12/21 07:11:59;;;;;;;1.30;0.55;;;10.50;86.40;;;;;;6280778;22;19996;-77
2020/12/21 07:14:29;;;;;;;1.67;0.50;;;10.50;86.40;;;;;;6276841;22;20668;-75
2020/12/21 07:17:10;;;;;;;0.57;0.40;;;10.50;86.60;;;;;;6275767;22;19995;-75
2020/12/21 07:19:39;;;;;;;0.98;0.52;;;10.50;86.40;;;;;;6276015;22;20007;-76
2020/12/21 07:22:07;;;;;;;3.28;0.70;;;10.50;86.40;;;;;;6275632;22;20015;-77
2020/12/21 07:24:38;;;;;;;1.35;0.75;;;10.40;86.50;;;;;;6278621;22;19992;-77
2020/12/21 07:27:05;;;;;;;0.88;0.50;;;10.30;86.70;;;;;;6278107;22;20306;-75
2020/12/21 07:29:33;;;;;;;0.80;0.60;;;10.30;86.70;;;;;;6274998;22;20006;-76
2020/12/21 07:32:01;;;;;;;2.55;0.40;;;10.40;86.40;;;;;;6274968;22;20004;-75
2020/12/21 07:34:32;;;;;;;0.90;0.50;;;10.40;86.50;;;;;;6276374;22;20022;-76
2020/12/21 07:37:06;;;;;;;;;;;10.40;86.30;;;;;;6276292;22;20000;-76
2020/12/21 07:39:32;;;;;;;0.57;0.40;;;10.40;86.30;;;;;;6276274;22;19899;-76
2020/12/21 07:42:03;;;;;;;1.05;0.60;;;10.30;86.50;;;;;;6276253;22;20006;-74
2020/12/21 07:44:34;;;;;;;0.52;0.40;;;10.30;86.80;;;;;;6275862;22;19996;-75
2020/12/21 07:47:07;;;;;;;1.08;0.70;;;10.30;86.80;;;;;;6278938;22;19996;-75
2020/12/21 07:49:36;;;;;;;1.75;0.50;;;10.40;86.80;;;;;;6250543;22;20002;-76
2020/12/21 07:52:05;;;;;;;1.13;0.40;;;10.50;86.50;;;;;;6277097;22;19996;-75
2020/12/21 07:54:43;;;;;;;0.55;0.47;;;10.50;86.40;;;;;;6276208;22;20008;-75
2020/12/21 07:57:12;;;;;;;1.45;0.85;;;10.70;86.20;;;;;;6273692;22;19996;-73
2020/12/21 07:59:39;;;;;;;0.63;0.47;;;10.60;86.60;;;;;;6276173;22;20018;-75
2020/12/21 08:02:07;;;;;;;0.93;0.40;;;10.60;86.60;;;;;;6275776;22;20000;-75
2020/12/21 08:04:35;;;;;;;0.80;0.52;;;10.50;86.90;;;;;;6276529;22;20019;-74
2020/12/21 08:07:12;;;;;;;0.47;0.40;;;10.50;87.10;;;;;;6276397;22;19995;-73
2020/12/21 08:09:40;;;;;;;1.40;0.60;;;10.40;87.10;;;;;;6280935;22;20325;-74
2020/12/21 08:12:11;;;;;;;2.15;0.60;;;10.40;87.50;;;;;;6276204;22;20007;-74
2020/12/21 08:14:39;;;;;;;1.45;0.30;;;10.40;87.50;;;;;;6276657;22;20008;-74
2020/12/21 08:17:12;;;;;;;1.95;0.68;;;10.40;87.50;;;;;;6275321;22;20313;-76
2020/12/21 08:19:51;;;;;;;0.68;0.60;;;10.40;87.40;;;;;;6274067;22;20004;-76
2020/12/21 08:22:22;;;;;;;0.80;0.60;;;10.30;87.70;;;;;;6275745;22;20004;-73
2020/12/21 08:25:06;;;;;;;1.05;0.60;;;10.30;87.60;;;;;;6277269;22;19996;-73
2020/12/21 08:27:34;;;;;;;1.65;0.93;;;10.20;88.00;;;;;;6275378;22;20007;-73
2020/12/21 08:30:17;;;;;;;0.98;0.60;;;10.20;88.10;;;;;;6275030;22;20000;-73
2020/12/21 08:32:44;;;;;;;0.90;0.57;;;10.30;87.80;;;;;;6277498;22;20000;-72
2020/12/21 08:35:11;;;;;;;1.45;0.70;;;10.30;88.10;;;;;;6274898;22;20030;-74
2020/12/21 08:37:39;;;;;;;0.63;0.57;;;10.30;88.30;;;;;;6277351;22;19992;-74
2020/12/21 08:40:14;;;;;;;2.55;0.50;;;10.30;88.40;;;;;;6276892;22;20000;-75
2020/12/21 08:42:41;;;;;;;1.48;0.50;;;10.30;88.30;;;;;;6273393;22;19996;-74
2020/12/21 08:45:09;;;;;;;1.52;0.68;;;10.40;88.30;;;;;;6274973;22;20462;-75
2020/12/21 08:47:37;;;;;;;1.80;0.60;;;10.40;88.30;;;;;;6273566;22;19996;-75
2020/12/21 08:50:05;;;;;;;2.33;0.50;;;10.40;88.50;;;;;;6276757;22;20007;-75
2020/12/21 08:52:32;;;;;;;1.27;0.50;;;10.40;88.30;;;;;;6275714;22;19996;-75
2020/12/21 08:54:59;;;;;;;1.00;0.77;;;10.40;88.20;;;;;;6247802;22;20114;-75
2020/12/21 08:57:26;;;;;;;0.75;0.50;;;10.40;88.00;;;;;;6276145;22;19996;-75
2020/12/21 08:59:52;;;;;;;0.50;0.47;;;10.40;87.70;;;;;;6275674;22;20298;-76
2020/12/21 09:02:19;;;;;;;0.77;0.70;;;10.40;87.70;;;;;;6273786;22;20015;-76
2020/12/21 09:04:46;;;;;;;1.10;0.60;;;10.40;87.80;;;;;;6247411;22;20007;-75
2020/12/21 09:07:13;;;;;;;1.55;0.70;;;10.40;87.70;;;;;;6275741;22;19992;-75
2020/12/21 09:09:40;;;;;;;0.80;0.50;;;10.40;87.60;;;;;;6275928;22;20321;-74
2020/12/21 09:12:07;;;;;;;0.82;0.60;;;10.50;87.40;;;;;;6275726;22;19995;-75
2020/12/21 09:14:34;;;;;;;0.60;0.47;;;10.50;87.50;;;;;;6275545;22;20022;-75
2020/12/21 09:17:01;;;;;;;0.80;0.60;;;10.60;87.60;;;;;;6277000;22;20047;-75
2020/12/21 09:19:28;;;;;;;1.05;0.40;;;10.60;87.60;;;;;;6276500;22;20007;-75
2020/12/21 09:21:54;;;;;;;0.32;0.30;;;10.70;86.90;;;;;;6249638;22;20004;-75
2020/12/21 09:24:21;;;;;;;0.75;0.40;;;10.70;86.20;;;;;;6275914;22;19999;-75
2020/12/21 09:26:48;;;;;;;1.27;0.40;;;10.80;85.70;;;;;;6247236;22;20004;-74
2020/12/21 09:29:15;;;;;;;0.77;0.50;;;10.80;85.10;;;;;;6276349;22;19992;-73
2020/12/21 09:31:42;;;;;;;2.08;0.40;;;10.70;85.00;;;;;;6272982;22;20110;-73
2020/12/21 09:34:09;;;;;;;0.30;0.30;;;10.80;84.90;;;;;;6276134;22;20003;-72
2020/12/21 09:36:42;;;;;;;0.35;0.20;;;10.80;84.30;;;;;;6248056;22;20010;-75
2020/12/21 09:39:09;;;;;;;0.60;0.40;;;10.80;84.10;;;;;;6277790;22;20321;-74
2020/12/21 09:41:36;;;;;;;0.95;0.47;;;10.80;83.00;;;;;;6273671;22;20004;-76
2020/12/21 09:44:03;;;;;;;2.28;0.30;;;10.80;83.00;;;;;;6276020;22;19992;-76
2020/12/21 09:46:30;;;;;;;0.70;0.30;;;10.80;83.10;;;;;;6273552;22;19999;-74
2020/12/21 09:49:03;;;;;;;1.67;0.50;;;10.80;82.70;;;;;;6248182;22;19999;-76
2020/12/21 09:51:30;;;;;;;1.52;0.43;;;10.70;82.90;;;;;;6274716;22;20008;-75
2020/12/21 09:53:57;;;;;;;0.80;0.50;;;10.70;83.50;;;;;;6276597;22;19995;-75
2020/12/21 09:56:24;;;;;;;0.40;0.30;;;10.60;83.60;;;;;;6276508;22;20011;-74
2020/12/21 09:58:51;;;;;;;0.98;0.50;;;10.50;83.80;;;;;;6277501;22;20000;-74
2020/12/21 10:01:18;;;;;;;2.13;0.30;;;10.60;83.60;;;;;;6273500;22;20436;-76
2020/12/21 10:03:45;;;;;;;0.80;0.40;;;10.60;83.60;;;;;;6275195;22;19999;-74
2020/12/21 10:06:12;;;;;;;1.25;0.55;;;10.50;83.80;;;;;;6273531;22;20022;-73
2020/12/21 10:08:40;;;;;;;1.20;0.40;;;10.60;83.80;;;;;;6276297;22;19999;-73
2020/12/21 10:11:07;;;;;;;1.15;0.50;;;10.50;83.90;;;;;;6273407;22;20004;-73
2020/12/21 10:13:35;;;;;;;0.68;0.40;;;10.50;84.30;;;;;;6275026;22;19996;-71
2020/12/21 10:16:02;;;;;;;0.40;0.40;;;10.60;83.60;;;;;;6274950;22;20023;-74
2020/12/21 10:18:29;;;;;;;0.60;0.50;;;10.50;83.30;;;;;;6279133;22;19999;-73
2020/12/21 10:20:56;;;;;;;1.02;0.60;;;10.40;83.30;;;;;;6275490;22;20015;-73
2020/12/21 10:23:22;;;;;;;0.80;0.47;;;10.40;82.90;;;;;;6275368;22;19996;-73
2020/12/21 10:25:49;;;;;;;1.33;0.60;;;10.40;82.50;;;;;;6248043;22;19996;-73
2020/12/21 10:28:16;;;;;;;3.40;0.52;;;10.30;82.80;;;;;;6275922;22;19999;-73
2020/12/21 10:30:43;;;;;;;0.90;0.60;;;10.30;82.20;;;;;;6275784;22;20329;-72
2020/12/21 10:33:10;;;;;;;0.60;0.52;;;10.20;82.70;;;;;;6275288;22;20031;-73
2020/12/21 10:35:40;;;;;;;0.40;0.40;;;10.00;83.70;;;;;;6276879;22;20015;-72
2020/12/21 10:38:07;;;;;;;0.70;0.52;;;9.90;84.30;;;;;;6276788;22;20007;-72
2020/12/21 10:40:34;;;;;;;1.38;0.63;;;9.80;84.30;;;;;;6248900;22;20011;-74
2020/12/21 10:43:01;;;;;;;2.33;0.47;;;9.70;84.70;;;;;;6283165;22;20100;-73
2020/12/21 10:45:28;;;;;;;0.70;0.50;;;9.60;85.80;;;;;;6279711;22;20010;-74
2020/12/21 10:47:55;;;;;;;2.92;0.70;;;9.50;86.30;;;;;;6275068;22;20456;-73
2020/12/21 10:50:22;;;;;;;0.98;0.57;;;9.40;86.80;;;;;;6274989;22;20020;-73
2020/12/21 10:52:48;;;;;;;2.03;0.90;;;9.30;87.50;;;;;;6248595;22;19996;-73
2020/12/21 10:55:15;;;;;;;1.00;0.70;;;9.20;87.80;;;;;;6278152;22;20299;-73
2020/12/21 10:57:42;;;;;;;0.77;0.45;;;9.40;83.60;;;;;;6277949;22;19992;-72
2020/12/21 11:00:13;;;;;;;0.98;0.52;;;9.50;82.50;;;;;;6277192;22;19995;-74
2020/12/21 11:02:40;;;;;;;1.17;0.73;;;9.60;81.70;;;;;;6274625;22;20009;-75
2020/12/21 11:05:07;;;;;;;0.85;0.65;;;9.60;80.40;;;;;;6275038;22;20000;-74
2020/12/21 11:07:34;;;;;;;0.80;0.60;;;9.70;80.60;;;;;;6278185;22;20311;-76
2020/12/21 11:10:01;;;;;;;1.08;0.52;;;9.60;80.50;;;;;;6281179;22;19998;-75
2020/12/21 11:12:27;;;;;;;2.10;0.65;;;9.60;80.70;;;;;;6277971;22;20000;-74
2020/12/21 11:14:54;;;;;;;1.00;0.80;;;9.60;80.50;;;;;;6277321;22;20000;-75
2020/12/21 11:17:21;;;;;;;1.08;0.77;;;9.60;80.20;;;;;;6276228;22;20795;-74
2020/12/21 11:19:48;;;;;;;1.35;0.77;;;9.50;80.50;;;;;;6280342;22;19996;-73
2020/12/21 11:22:15;;;;;;;1.77;1.05;;;9.40;80.20;;;;;;6279854;22;20016;-73
2020/12/21 11:24:41;;;;;;;1.13;0.63;;;9.50;79.70;;;;;;6278106;22;19991;-75
2020/12/21 11:27:08;;;;;;;2.28;0.90;;;9.60;79.50;;;;;;6276950;22;19996;-75
2020/12/21 11:29:36;;;;;;;3.10;0.85;;;9.80;78.00;;;;;;6277485;22;20344;-74
2020/12/21 11:32:02;;;;;;;1.67;0.93;;;10.00;76.90;;;;;;6274488;22;20007;-74
2020/12/21 11:34:30;;;;;;;1.27;0.80;;;10.20;76.00;;;;;;6278612;22;20011;-72
2020/12/21 11:36:57;;;;;;;0.90;0.82;;;10.20;75.30;;;;;;6277245;22;20007;-73
2020/12/21 11:39:24;;;;;;;2.65;1.10;;;10.20;75.00;;;;;;6276169;22;20019;-75
2020/12/21 11:41:51;;;;;;;1.27;0.90;;;10.20;74.40;;;;;;6281355;22;19996;-74
2020/12/21 11:44:18;;;;;;;3.15;1.00;;;10.30;74.30;;;;;;6249046;22;20003;-74
2020/12/21 11:46:46;;;;;;;3.95;1.05;;;10.20;74.30;;;;;;6274423;22;20448;-73
2020/12/21 11:49:13;;;;;;;2.10;1.00;;;10.20;74.30;;;;;;6273973;22;20413;-74
2020/12/21 11:51:40;;;;;;;1.35;0.95;;;10.10;74.50;;;;;;6277807;22;19996;-74
2020/12/21 11:54:07;;;;;;;1.33;0.98;;;10.10;74.50;;;;;;6275949;22;19995;-74
2020/12/21 11:56:34;;;;;;;3.55;1.15;;;10.00;74.00;;;;;;6277668;22;20014;-74
2020/12/21 11:59:00;;;;;;;2.25;1.23;;;10.20;73.70;;;;;;6274858;22;20000;-75
2020/12/21 12:01:27;;;;;;;3.03;0.98;;;10.10;74.20;;;;;;6278355;22;20010;-74
2020/12/21 12:03:54;;;;;;;1.40;0.98;;;10.10;74.00;;;;;;6278406;22;19992;-73
2020/12/21 12:06:25;;;;;;;3.40;0.90;;;10.00;73.80;;;;;;6277440;22;19999;-74
2020/12/21 12:08:55;;;;;;;4.40;0.98;;;10.10;73.80;;;;;;6274390;22;20007;-74
2020/12/21 12:11:24;;;;;;;2.28;0.90;;;10.10;73.90;;;;;;6274795;22;19996;-74
2020/12/21 12:13:51;;;;;;;2.30;0.93;;;10.00;73.80;;;;;;6282189;22;20000;-73
2020/12/21 12:16:22;;;;;;;1.17;0.80;;;10.00;74.00;;;;;;6274468;22;20011;-74
2020/12/21 12:18:49;;;;;;;1.65;1.00;;;10.10;73.30;;;;;;6247048;22;20000;-74
2020/12/21 12:21:22;;;;;;;1.20;0.90;;;10.10;73.10;;;;;;6276473;22;20872;-72
2020/12/21 12:23:50;;;;;;;2.35;1.10;;;10.20;72.80;;;;;;6277593;22;20313;-72
2020/12/21 12:26:18;;;;;;;1.73;1.00;;;10.30;72.20;;;;;;6275063;22;20004;-73
2020/12/21 12:28:45;;;;;;;1.58;1.10;;;10.40;72.20;;;;;;6278397;22;20000;-73
2020/12/21 12:31:17;;;;;;;1.98;1.20;;;10.40;72.30;;;;;;6277217;22;20000;-73
2020/12/21 12:33:44;;;;;;;1.92;1.30;;;10.30;72.60;;;;;;6273974;22;20455;-73
2020/12/21 12:36:16;;;;;;;1.10;0.98;;;10.40;72.10;;;;;;6276297;22;20007;-73
2020/12/21 12:38:44;;;;;;;2.05;1.38;;;10.40;72.00;;;;;;6275166;22;20321;-74
2020/12/21 12:41:11;;;;;;;2.05;1.13;;;10.40;72.10;;;;;;6275710;22;20012;-73
2020/12/21 12:43:38;;;;;;;2.08;1.27;;;10.40;72.60;;;;;;6276611;22;20000;-72
2020/12/21 12:46:07;;;;;;;3.70;1.60;;;10.40;73.00;;;;;;6276062;22;20023;-74
2020/12/21 12:48:35;;;;;;;2.33;1.48;;;10.30;73.20;;;;;;6276863;22;19999;-73
2020/12/21 12:51:02;;;;;;;2.97;1.70;;;10.40;73.40;;;;;;6247483;22;20004;-73
2020/12/21 12:53:29;;;;;;;2.45;1.38;;;10.40;73.50;;;;;;6275752;22;20503;-72
2020/12/21 12:55:56;;;;;;;1.80;1.20;;;10.40;73.90;;;;;;6274019;22;20015;-72